createdAt,value
2022-08-28T00:01:00.014Z,69.50
2022-08-28T00:03:26.929Z,69.50
2022-08-28T00:05:54.043Z,69.40
2022-08-28T00:08:21.211Z,69.40
2022-08-28T00:10:48.358Z,69.40
2022-08-28T00:13:19.082Z,69.40
2022-08-28T00:15:58.030Z,69.40
2022-08-28T00:18:26.543Z,69.50
2022-08-28T00:20:53.889Z,69.60
2022-08-28T00:23:21.930Z,69.70
2022-08-28T00:25:48.955Z,69.90
2022-08-28T00:28:23.473Z,69.90
2022-08-28T00:30:54.664Z,70.00
2022-08-28T00:33:35.252Z,70.00
2022-08-28T00:36:03.115Z,70.10
2022-08-28T00:38:30.520Z,70.10
2022-08-28T00:41:00.776Z,70.10
2022-08-28T00:43:46.355Z,70.10
2022-08-28T00:46:18.157Z,70.10
2022-08-28T00:48:45.591Z,70.20
2022-08-28T00:51:32.703Z,70.10
2022-08-28T00:54:02.170Z,70.20
2022-08-28T00:56:33.051Z,70.30
2022-08-28T00:59:07.268Z,70.30
2022-08-28T01:01:34.384Z,70.30
2022-08-28T01:04:02.417Z,70.30
2022-08-28T01:06:29.420Z,70.30
2022-08-28T01:08:56.958Z,70.30
2022-08-28T01:11:26.295Z,70.30
2022-08-28T01:13:54.562Z,70.30
2022-08-28T01:16:23.042Z,70.30
2022-08-28T01:18:55.325Z,70.40
2022-08-28T01:21:36.713Z,70.40
2022-08-28T01:24:14.930Z,70.50
2022-08-28T01:26:42.580Z,70.50
2022-08-28T01:29:11.468Z,70.60
2022-08-28T01:31:40.584Z,70.70
2022-08-28T01:34:09.442Z,70.80
2022-08-28T01:36:36.848Z,70.90
2022-08-28T01:39:17.098Z,71.00
2022-08-28T01:41:47.923Z,71.10
2022-08-28T01:44:17.964Z,71.20
2022-08-28T01:46:46.378Z,71.30
2022-08-28T01:49:13.645Z,71.40
2022-08-28T01:51:41.874Z,71.50
2022-08-28T01:54:09.942Z,71.60
2022-08-28T01:56:37.816Z,71.80
2022-08-28T01:59:08.365Z,71.90
2022-08-28T02:01:36.369Z,72.00
2022-08-28T02:04:04.482Z,72.10
2022-08-28T02:06:32.449Z,72.30
2022-08-28T02:09:00.490Z,72.40
2022-08-28T02:11:30.606Z,72.50
2022-08-28T02:13:57.755Z,72.50
2022-08-28T02:16:25.045Z,72.60
2022-08-28T02:18:53.143Z,72.70
2022-08-28T02:21:20.937Z,72.80
2022-08-28T02:23:47.997Z,72.90
2022-08-28T02:26:15.157Z,73.00
2022-08-28T02:28:42.757Z,73.10
2022-08-28T02:31:10.897Z,73.20
2022-08-28T02:33:40.046Z,73.20
2022-08-28T02:36:12.357Z,73.30
2022-08-28T02:38:39.611Z,73.30
2022-08-28T02:41:07.652Z,73.40
2022-08-28T02:43:35.231Z,73.40
2022-08-28T02:46:03.027Z,73.40
2022-08-28T02:48:31.736Z,73.40
2022-08-28T02:51:03.725Z,73.40
2022-08-28T02:53:31.266Z,73.50
2022-08-28T02:55:59.116Z,73.50
2022-08-28T02:58:27.330Z,73.60
2022-08-28T03:00:54.874Z,73.60
2022-08-28T03:03:21.822Z,73.60
2022-08-28T03:05:48.857Z,73.60
2022-08-28T03:08:16.130Z,73.60
2022-08-28T03:10:43.102Z,73.60
2022-08-28T03:13:11.257Z,73.70
2022-08-28T03:15:53.668Z,73.80
2022-08-28T03:18:25.370Z,73.80
2022-08-28T03:20:53.895Z,73.80
2022-08-28T03:23:26.739Z,73.90
2022-08-28T03:26:05.581Z,73.90
2022-08-28T03:28:36.643Z,74.00
2022-08-28T03:31:04.045Z,74.10
2022-08-28T03:33:30.962Z,74.10
2022-08-28T03:35:59.454Z,74.10
2022-08-28T03:38:26.942Z,74.20
2022-08-28T03:40:54.559Z,74.20
2022-08-28T03:43:24.706Z,74.20
2022-08-28T03:46:00.035Z,74.20
2022-08-28T03:48:30.006Z,74.20
2022-08-28T03:50:57.904Z,74.20
2022-08-28T03:53:26.510Z,74.20
2022-08-28T03:55:54.318Z,74.10
2022-08-28T03:58:22.330Z,74.10
2022-08-28T04:00:50.399Z,74.10
2022-08-28T04:03:17.901Z,74.10
2022-08-28T04:05:46.634Z,74.00
2022-08-28T04:08:16.246Z,74.00
2022-08-28T04:10:44.948Z,74.00
2022-08-28T04:13:12.881Z,73.90
2022-08-28T04:15:41.019Z,73.90
2022-08-28T04:18:09.808Z,73.90
2022-08-28T04:20:37.528Z,73.90
2022-08-28T04:23:05.847Z,73.80
2022-08-28T04:25:32.817Z,73.80
2022-08-28T04:28:01.006Z,73.90
2022-08-28T04:30:27.946Z,73.90
2022-08-28T04:32:54.979Z,73.90
2022-08-28T04:35:22.087Z,73.90
2022-08-28T04:37:50.099Z,73.90
2022-08-28T04:40:17.388Z,73.90
2022-08-28T04:42:45.122Z,73.90
2022-08-28T04:45:12.201Z,74.00
2022-08-28T04:47:39.165Z,74.00
2022-08-28T04:50:07.444Z,74.00
2022-08-28T04:52:34.718Z,74.00
2022-08-28T04:55:01.836Z,74.00
2022-08-28T04:57:30.440Z,74.00
2022-08-28T05:00:00.289Z,74.00
2022-08-28T05:02:27.361Z,74.00
2022-08-28T05:04:54.475Z,74.00
2022-08-28T05:07:21.351Z,74.00
2022-08-28T05:09:48.478Z,74.00
2022-08-28T05:12:17.386Z,73.90
2022-08-28T05:14:44.832Z,73.90
2022-08-28T05:17:14.285Z,73.90
2022-08-28T05:19:41.585Z,73.80
2022-08-28T05:22:09.949Z,73.70
2022-08-28T05:24:38.166Z,73.70
2022-08-28T05:27:06.395Z,73.60
2022-08-28T05:29:33.562Z,73.50
2022-08-28T05:32:00.613Z,73.50
2022-08-28T05:34:28.040Z,73.40
2022-08-28T05:36:55.263Z,73.30
2022-08-28T05:39:22.332Z,73.30
2022-08-28T05:41:49.258Z,73.40
2022-08-28T05:44:17.976Z,73.40
2022-08-28T05:46:48.132Z,73.60
2022-08-28T05:49:17.826Z,73.70
2022-08-28T05:51:45.283Z,73.90
2022-08-28T05:54:12.842Z,74.00
2022-08-28T05:56:40.867Z,74.10
2022-08-28T05:59:09.234Z,74.20
2022-08-28T06:01:48.676Z,74.20
2022-08-28T06:04:19.758Z,74.30
2022-08-28T06:06:46.798Z,74.40
2022-08-28T06:09:17.550Z,74.40
2022-08-28T06:11:46.429Z,74.50
2022-08-28T06:14:16.617Z,74.50
2022-08-28T06:16:50.817Z,74.60
2022-08-28T06:19:18.490Z,74.70
2022-08-28T06:21:48.089Z,74.70
2022-08-28T06:24:15.256Z,74.70
2022-08-28T06:26:42.198Z,74.80
2022-08-28T06:29:12.619Z,74.80
2022-08-28T06:31:40.182Z,74.80
2022-08-28T06:34:07.887Z,74.80
2022-08-28T06:36:38.463Z,74.80
2022-08-28T06:39:06.753Z,74.80
2022-08-28T06:41:34.330Z,74.80
2022-08-28T06:44:02.903Z,74.80
2022-08-28T06:46:31.767Z,74.90
2022-08-28T06:48:58.763Z,74.80
2022-08-28T06:51:25.774Z,74.80
2022-08-28T06:53:52.759Z,74.80
2022-08-28T06:56:26.587Z,74.80
2022-08-28T06:58:56.751Z,74.70
2022-08-28T07:01:29.378Z,74.40
2022-08-28T07:03:59.795Z,74.20
2022-08-28T07:06:30.391Z,74.10
2022-08-28T07:08:57.342Z,74.00
2022-08-28T07:11:29.171Z,73.70
2022-08-28T07:13:57.384Z,73.50
2022-08-28T07:16:27.523Z,73.40
2022-08-28T07:18:54.794Z,73.40
2022-08-28T07:21:22.238Z,72.50
2022-08-28T07:23:49.932Z,71.50
2022-08-28T07:26:22.615Z,71.70
2022-08-28T07:28:50.910Z,71.80
2022-08-28T07:31:21.630Z,71.40
2022-08-28T07:33:50.109Z,70.40
2022-08-28T07:36:29.565Z,70.10
2022-08-28T07:38:59.059Z,69.90
2022-08-28T07:41:32.294Z,69.90
2022-08-28T07:44:19.395Z,69.50
2022-08-28T07:46:46.425Z,69.10
2022-08-28T07:49:17.133Z,68.40
2022-08-28T07:51:46.741Z,68.30
2022-08-28T07:54:17.707Z,68.00
2022-08-28T07:56:46.588Z,67.30
2022-08-28T07:59:17.033Z,67.80
2022-08-28T08:01:46.982Z,67.70
2022-08-28T08:04:16.138Z,67.30
2022-08-28T08:06:44.743Z,67.10
2022-08-28T08:09:14.942Z,67.10
2022-08-28T08:11:42.442Z,67.10
2022-08-28T08:14:10.012Z,67.00
2022-08-28T08:16:40.931Z,66.90
2022-08-28T08:19:14.047Z,66.70
2022-08-28T08:21:46.334Z,66.70
2022-08-28T08:24:19.846Z,65.80
2022-08-28T08:26:55.217Z,65.60
2022-08-28T08:29:27.605Z,65.00
2022-08-28T08:31:55.761Z,64.60
2022-08-28T08:34:22.666Z,63.90
2022-08-28T08:36:49.502Z,64.30
2022-08-28T08:39:16.380Z,64.40
2022-08-28T08:41:49.845Z,63.90
2022-08-28T08:44:35.371Z,63.70
2022-08-28T08:47:14.634Z,63.10
2022-08-28T08:49:48.430Z,62.60
2022-08-28T08:52:21.565Z,62.80
2022-08-28T08:55:02.182Z,62.90
2022-08-28T08:57:30.562Z,62.70
2022-08-28T08:59:57.449Z,60.70
2022-08-28T09:02:31.453Z,60.40
2022-08-28T09:05:10.405Z,60.30
2022-08-28T09:07:40.609Z,60.80
2022-08-28T09:10:11.113Z,60.30
2022-08-28T09:12:44.730Z,59.90
2022-08-28T09:15:17.482Z,60.20
2022-08-28T09:17:45.649Z,60.60
2022-08-28T09:20:13.653Z,61.20
2022-08-28T09:22:47.438Z,60.90
2022-08-28T09:25:34.239Z,59.40
2022-08-28T09:28:06.694Z,59.40
2022-08-28T09:30:34.110Z,58.70
2022-08-28T09:33:01.370Z,58.90
2022-08-28T09:35:29.843Z,58.90
2022-08-28T09:37:57.673Z,59.20
2022-08-28T09:40:26.773Z,59.80
2022-08-28T09:43:24.141Z,59.90
2022-08-28T09:45:59.726Z,60.10
2022-08-28T09:48:36.951Z,58.90
2022-08-28T09:51:24.018Z,58.50
2022-08-28T09:53:50.825Z,58.70
2022-08-28T09:56:34.316Z,58.60
2022-08-28T09:59:02.566Z,59.00
2022-08-28T10:01:38.595Z,59.60
2022-08-28T10:04:05.788Z,60.30
2022-08-28T10:06:36.751Z,59.60
2022-08-28T10:09:22.001Z,57.60
2022-08-28T10:11:51.628Z,57.30
2022-08-28T10:14:38.678Z,56.90
2022-08-28T10:17:13.929Z,57.00
2022-08-28T10:19:47.967Z,56.50
2022-08-28T10:22:20.941Z,56.90
2022-08-28T10:24:47.901Z,57.60
2022-08-28T10:27:27.910Z,56.60
2022-08-28T10:29:54.807Z,56.10
2022-08-28T10:32:42.649Z,55.70
2022-08-28T10:35:18.320Z,55.80
2022-08-28T10:37:47.867Z,55.00
2022-08-28T10:40:17.665Z,55.30
2022-08-28T10:42:54.102Z,55.60
2022-08-28T10:45:22.856Z,54.70
2022-08-28T10:47:52.341Z,54.40
2022-08-28T10:50:22.503Z,54.50
2022-08-28T10:52:53.873Z,53.20
2022-08-28T10:55:27.027Z,52.50
2022-08-28T10:57:59.036Z,53.00
2022-08-28T11:00:27.838Z,52.10
2022-08-28T11:02:57.032Z,52.90
2022-08-28T11:05:27.625Z,51.70
2022-08-28T11:07:56.535Z,51.30
2022-08-28T11:10:32.488Z,51.40
2022-08-28T11:12:59.780Z,51.80
2022-08-28T11:15:36.829Z,51.40
2022-08-28T11:18:04.283Z,51.00
2022-08-28T11:20:31.561Z,51.40
2022-08-28T11:23:01.702Z,50.60
2022-08-28T11:25:48.987Z,49.70
2022-08-28T11:28:17.631Z,50.20
2022-08-28T11:30:48.865Z,49.30
2022-08-28T11:33:34.719Z,49.70
2022-08-28T11:36:02.290Z,49.70
2022-08-28T11:38:41.023Z,50.00
2022-08-28T11:41:15.425Z,51.00
2022-08-28T11:43:44.306Z,49.90
2022-08-28T11:46:11.406Z,50.10
2022-08-28T11:48:39.945Z,49.70
2022-08-28T11:51:24.562Z,48.30
2022-08-28T11:53:58.176Z,48.20
2022-08-28T11:56:44.637Z,47.70
2022-08-28T11:59:24.873Z,47.30
2022-08-28T12:02:20.682Z,46.30
2022-08-28T12:04:47.664Z,47.00
2022-08-28T12:07:16.477Z,46.70
2022-08-28T12:09:43.337Z,46.40
2022-08-28T12:12:30.534Z,46.60
2022-08-28T12:14:59.338Z,44.50
2022-08-28T12:17:31.200Z,44.10
2022-08-28T12:20:04.270Z,45.00
2022-08-28T12:22:53.645Z,44.80
2022-08-28T12:25:32.620Z,43.80
2022-08-28T12:28:02.958Z,43.80
2022-08-28T12:30:33.641Z,43.20
2022-08-28T12:33:10.145Z,43.30
2022-08-28T12:35:37.132Z,43.70
2022-08-28T12:38:05.173Z,44.30
2022-08-28T12:40:41.805Z,43.90
2022-08-28T12:43:10.208Z,43.40
2022-08-28T12:45:36.999Z,42.50
2022-08-28T12:48:31.660Z,42.70
2022-08-28T12:51:06.546Z,42.30
2022-08-28T12:53:37.807Z,42.40
2022-08-28T12:56:05.073Z,41.90
2022-08-28T12:58:35.953Z,42.80
2022-08-28T13:01:06.332Z,42.80
2022-08-28T13:03:33.821Z,42.70
2022-08-28T13:06:03.366Z,41.60
2022-08-28T13:08:31.390Z,41.70
2022-08-28T13:10:58.942Z,41.30
2022-08-28T13:13:40.390Z,41.40
2022-08-28T13:16:09.077Z,41.00
2022-08-28T13:18:51.499Z,40.30
2022-08-28T13:21:33.213Z,39.90
2022-08-28T13:24:20.070Z,40.60
2022-08-28T13:26:47.341Z,41.50
2022-08-28T13:29:21.909Z,41.20
2022-08-28T13:31:59.733Z,42.20
2022-08-28T13:34:28.171Z,40.90
2022-08-28T13:36:59.921Z,40.20
2022-08-28T13:39:28.690Z,40.80
2022-08-28T13:41:57.357Z,40.50
2022-08-28T13:44:34.068Z,41.00
2022-08-28T13:47:02.365Z,41.00
2022-08-28T13:49:29.241Z,40.90
2022-08-28T13:51:58.006Z,41.10
2022-08-28T13:54:25.053Z,40.70
2022-08-28T13:56:54.484Z,41.00
2022-08-28T13:59:22.977Z,39.90
2022-08-28T14:02:10.105Z,40.40
2022-08-28T14:04:37.293Z,40.10
2022-08-28T14:07:04.115Z,40.10
2022-08-28T14:09:30.946Z,39.80
2022-08-28T14:11:57.804Z,40.80
2022-08-28T14:14:24.634Z,40.10
2022-08-28T14:16:52.466Z,40.50
2022-08-28T14:19:19.745Z,40.30
2022-08-28T14:21:46.540Z,41.30
2022-08-28T14:24:13.481Z,41.00
2022-08-28T14:26:40.605Z,41.00
2022-08-28T14:29:08.666Z,40.70
2022-08-28T14:31:36.889Z,40.90
2022-08-28T14:34:04.885Z,40.90
2022-08-28T14:36:32.232Z,40.80
2022-08-28T14:39:05.414Z,40.70
2022-08-28T14:41:33.073Z,40.70
2022-08-28T14:44:00.016Z,39.80
2022-08-28T14:46:30.809Z,39.60
2022-08-28T14:48:59.171Z,40.10
2022-08-28T14:51:26.435Z,40.40
2022-08-28T14:53:53.661Z,40.90
2022-08-28T14:56:21.194Z,41.10
2022-08-28T14:58:48.258Z,39.80
2022-08-28T15:01:39.498Z,39.30
2022-08-28T15:04:10.503Z,39.50
2022-08-28T15:06:37.383Z,39.90
2022-08-28T15:09:04.362Z,40.50
2022-08-28T15:11:31.251Z,40.70
2022-08-28T15:13:58.624Z,40.70
2022-08-28T15:16:30.308Z,40.00
2022-08-28T15:18:58.499Z,40.10
2022-08-28T15:21:35.585Z,40.70
2022-08-28T15:24:03.442Z,40.60
2022-08-28T15:26:30.843Z,40.90
2022-08-28T15:29:02.284Z,41.10
2022-08-28T15:31:30.458Z,41.50
2022-08-28T15:33:57.401Z,41.90
2022-08-28T15:36:24.357Z,41.20
2022-08-28T15:39:09.593Z,40.90
2022-08-28T15:41:38.010Z,40.80
2022-08-28T15:44:05.101Z,41.00
2022-08-28T15:46:33.789Z,41.10
2022-08-28T15:49:06.379Z,41.40
2022-08-28T15:51:35.086Z,41.80
2022-08-28T15:54:02.807Z,42.40
2022-08-28T15:56:29.687Z,42.00
2022-08-28T15:58:56.670Z,43.10
2022-08-28T16:01:23.881Z,42.60
2022-08-28T16:03:51.169Z,42.50
2022-08-28T16:06:20.006Z,42.90
2022-08-28T16:08:47.878Z,42.80
2022-08-28T16:11:16.213Z,42.70
2022-08-28T16:13:43.082Z,43.10
2022-08-28T16:16:10.200Z,43.00
2022-08-28T16:18:37.198Z,43.10
2022-08-28T16:21:05.240Z,43.50
2022-08-28T16:23:32.605Z,43.60
2022-08-28T16:26:00.240Z,44.20
2022-08-28T16:28:27.685Z,44.20
2022-08-28T16:30:54.502Z,44.50
2022-08-28T16:33:22.309Z,44.10
2022-08-28T16:35:50.239Z,43.80
2022-08-28T16:38:22.259Z,44.10
2022-08-28T16:40:49.272Z,43.60
2022-08-28T16:43:16.505Z,43.60
2022-08-28T16:45:44.233Z,44.00
2022-08-28T16:48:12.763Z,44.20
2022-08-28T16:50:40.244Z,44.10
2022-08-28T16:53:08.478Z,44.40
2022-08-28T16:55:35.657Z,44.60
2022-08-28T16:58:02.876Z,44.70
2022-08-28T17:00:30.254Z,44.60
2022-08-28T17:02:57.190Z,44.90
2022-08-28T17:05:24.899Z,45.10
2022-08-28T17:07:52.147Z,45.10
2022-08-28T17:10:20.463Z,44.60
2022-08-28T17:12:47.439Z,44.30
2022-08-28T17:15:14.458Z,44.20
2022-08-28T17:17:41.535Z,44.10
2022-08-28T17:20:29.387Z,44.50
2022-08-28T17:22:56.350Z,44.40
2022-08-28T17:25:23.310Z,44.50
2022-08-28T17:27:50.469Z,44.80
2022-08-28T17:30:21.217Z,44.60
2022-08-28T17:32:48.632Z,45.00
2022-08-28T17:35:15.837Z,45.00
2022-08-28T17:37:43.099Z,44.90
2022-08-28T17:40:12.075Z,45.30
2022-08-28T17:42:39.297Z,45.50
2022-08-28T17:45:08.389Z,45.70
2022-08-28T17:47:35.426Z,45.80
2022-08-28T17:50:02.722Z,45.90
2022-08-28T17:52:29.942Z,45.90
2022-08-28T17:54:56.938Z,46.00
2022-08-28T17:57:24.344Z,46.10
2022-08-28T17:59:51.234Z,46.20
2022-08-28T18:02:19.209Z,46.40
2022-08-28T18:04:46.093Z,46.60
2022-08-28T18:07:12.970Z,46.70
2022-08-28T18:09:39.807Z,46.60
2022-08-28T18:12:12.267Z,46.70
2022-08-28T18:14:40.217Z,46.80
2022-08-28T18:17:07.367Z,46.90
2022-08-28T18:19:36.851Z,47.10
2022-08-28T18:22:03.692Z,47.30
2022-08-28T18:24:31.997Z,47.70
2022-08-28T18:26:58.999Z,47.70
2022-08-28T18:29:25.821Z,47.70
2022-08-28T18:31:52.619Z,47.80
2022-08-28T18:34:19.485Z,47.90
2022-08-28T18:36:46.328Z,48.10
2022-08-28T18:39:13.201Z,48.20
2022-08-28T18:41:43.813Z,48.40
2022-08-28T18:44:12.345Z,48.40
2022-08-28T18:46:39.279Z,48.50
2022-08-28T18:49:06.995Z,48.60
2022-08-28T18:51:33.924Z,48.90
2022-08-28T18:54:01.587Z,49.10
2022-08-28T18:56:32.010Z,49.30
2022-08-28T18:58:59.374Z,49.50
2022-08-28T19:01:26.330Z,49.40
2022-08-28T19:03:53.982Z,49.40
2022-08-28T19:06:20.983Z,49.40
2022-08-28T19:08:47.853Z,49.60
2022-08-28T19:11:14.789Z,49.60
2022-08-28T19:13:41.821Z,49.70
2022-08-28T19:16:09.091Z,49.80
2022-08-28T19:18:36.131Z,49.70
2022-08-28T19:21:07.334Z,49.70
2022-08-28T19:23:34.617Z,49.70
2022-08-28T19:26:01.458Z,49.70
2022-08-28T19:28:29.155Z,49.60
2022-08-28T19:30:56.038Z,49.70
2022-08-28T19:33:23.124Z,49.70
2022-08-28T19:35:50.239Z,49.70
2022-08-28T19:38:17.188Z,49.70
2022-08-28T19:40:45.447Z,49.70
2022-08-28T19:43:16.549Z,49.80
2022-08-28T19:45:44.525Z,50.10
2022-08-28T19:48:12.150Z,50.30
2022-08-28T19:50:39.272Z,50.30
2022-08-28T19:53:06.066Z,50.30
2022-08-28T19:55:33.078Z,50.40
2022-08-28T19:57:59.996Z,50.70
2022-08-28T20:00:31.890Z,50.90
2022-08-28T20:02:59.370Z,51.30
2022-08-28T20:05:26.254Z,51.90
2022-08-28T20:07:53.326Z,52.40
2022-08-28T20:10:21.409Z,53.00
2022-08-28T20:12:48.945Z,53.70
2022-08-28T20:15:16.714Z,54.10
2022-08-28T20:17:43.774Z,54.50
2022-08-28T20:20:11.854Z,55.00
2022-08-28T20:22:39.134Z,55.40
2022-08-28T20:25:06.860Z,55.60
2022-08-28T20:27:33.905Z,55.90
2022-08-28T20:30:07.154Z,56.10
2022-08-28T20:32:40.138Z,56.40
2022-08-28T20:35:07.903Z,56.60
2022-08-28T20:37:45.088Z,56.90
2022-08-28T20:40:18.162Z,57.10
2022-08-28T20:42:45.763Z,57.50
2022-08-28T20:45:13.369Z,57.50
2022-08-28T20:47:40.259Z,57.70
2022-08-28T20:50:07.279Z,57.80
2022-08-28T20:52:34.389Z,58.00
2022-08-28T20:55:01.234Z,58.10
2022-08-28T20:57:28.155Z,58.20
2022-08-28T20:59:54.937Z,58.10
2022-08-28T21:02:23.911Z,58.10
2022-08-28T21:04:51.860Z,58.10
2022-08-28T21:07:19.740Z,58.20
2022-08-28T21:10:05.154Z,58.40
2022-08-28T21:12:34.328Z,58.50
2022-08-28T21:15:01.262Z,58.60
2022-08-28T21:17:29.967Z,58.70
2022-08-28T21:20:08.386Z,58.80
2022-08-28T21:22:35.924Z,58.80
2022-08-28T21:25:04.069Z,58.90
2022-08-28T21:27:31.012Z,59.00
2022-08-28T21:29:58.585Z,59.00
2022-08-28T21:32:26.529Z,59.00
2022-08-28T21:34:54.568Z,59.10
2022-08-28T21:37:21.449Z,59.20
2022-08-28T21:39:48.233Z,59.20
2022-08-28T21:42:15.189Z,59.40
2022-08-28T21:44:46.083Z,59.50
2022-08-28T21:47:21.515Z,59.40
2022-08-28T21:49:49.532Z,59.50
2022-08-28T21:52:17.157Z,59.60
2022-08-28T21:54:43.981Z,59.50
2022-08-28T21:57:10.805Z,59.40
2022-08-28T21:59:38.130Z,59.50
2022-08-28T22:02:05.258Z,59.60
2022-08-28T22:04:32.417Z,59.60
2022-08-28T22:06:59.270Z,59.60
2022-08-28T22:09:26.102Z,59.60
2022-08-28T22:11:53.430Z,59.70
2022-08-28T22:14:20.308Z,59.50
2022-08-28T22:16:47.256Z,59.50
2022-08-28T22:19:14.178Z,59.50
2022-08-28T22:22:16.382Z,59.50
2022-08-28T22:24:43.202Z,59.50
2022-08-28T22:27:13.408Z,59.50
2022-08-28T22:29:40.471Z,59.40
2022-08-28T22:32:07.998Z,59.40
2022-08-28T22:34:37.569Z,59.40
2022-08-28T22:37:04.457Z,59.40
2022-08-28T22:39:31.297Z,59.30
2022-08-28T22:41:58.086Z,59.00
2022-08-28T22:44:24.933Z,59.00
2022-08-28T22:46:51.714Z,59.10
2022-08-28T22:49:18.549Z,59.00
2022-08-28T22:51:45.357Z,59.00
2022-08-28T22:54:12.240Z,59.20
2022-08-28T22:56:39.116Z,59.20
2022-08-28T22:59:06.045Z,59.20
2022-08-28T23:01:32.842Z,59.30
2022-08-28T23:04:01.413Z,59.30
2022-08-28T23:06:31.905Z,59.30
2022-08-28T23:08:58.753Z,59.50
2022-08-28T23:11:25.733Z,59.50
2022-08-28T23:13:52.610Z,59.50
2022-08-28T23:16:23.976Z,59.70
2022-08-28T23:19:07.268Z,59.70
2022-08-28T23:21:34.528Z,59.80
2022-08-28T23:24:06.281Z,59.70
2022-08-28T23:26:33.089Z,59.80
2022-08-28T23:29:00.019Z,59.70
2022-08-28T23:31:27.835Z,59.60
2022-08-28T23:33:54.682Z,59.70
2022-08-28T23:36:22.508Z,59.70
2022-08-28T23:38:50.027Z,59.70
2022-08-28T23:41:18.866Z,59.80
2022-08-28T23:43:45.949Z,59.90
2022-08-28T23:46:16.276Z,60.00
2022-08-28T23:48:43.415Z,60.10
2022-08-28T23:51:12.970Z,60.20
2022-08-28T23:53:41.338Z,60.10
2022-08-28T23:56:08.252Z,60.20
2022-08-28T23:58:35.460Z,60.20
